Time;durP1;ratioP1;P1;durP2;ratioP2;P2;SDS_P1;SDS_P2;PMS_P1;PMS_P2;Temp;Humidity;BMP_temperature;BMP_pressure;BME280_temperature;BME280_humidity;BME280_pressure;Samples;Min_cycle;Max_cycle;Signal;HPM_P1;HPM_P2
2022/05/05 00:00:13;;;;;;;11.27;4.88;;;;;;;11.55;71.92;101686.25;4995342;28;20034;-81
2022/05/05 00:02:38;;;;;;;12.02;5.45;;;;;;;11.58;71.91;101685.97;4993890;28;20046;-84
2022/05/05 00:05:05;;;;;;;12.52;5.57;;;;;;;11.60;71.88;101675.44;5022045;28;20075;-82
2022/05/05 00:07:31;;;;;;;10.55;5.82;;;;;;;11.64;71.39;101685.41;5010460;28;20396;-82
2022/05/05 00:09:56;;;;;;;13.93;5.55;;;;;;;11.67;70.98;101684.31;5076415;28;20061;-81
2022/05/05 00:15:07;;;;;;;12.00;5.03;;;;;;;11.72;70.11;101687.31;5005083;28;20034;-81
2022/05/05 00:17:34;;;;;;;20.45;6.38;;;;;;;11.66;70.57;101686.09;5096014;28;20025;-81
2022/05/05 00:20:00;;;;;;;11.95;5.65;;;;;;;11.62;71.17;101681.31;4997091;28;21968;-81
2022/05/05 00:22:26;;;;;;;9.80;5.50;;;;;;;11.61;71.53;101677.91;5088516;28;20443;-83
2022/05/05 00:24:52;;;;;;;10.77;5.55;;;;;;;11.62;71.50;101678.72;4999158;28;20547;-81
2022/05/05 00:27:18;;;;;;;13.35;5.57;;;;;;;11.62;71.17;101676.94;4977759;28;20133;-82
2022/05/05 00:29:43;;;;;;;11.52;5.35;;;;;;;11.62;70.87;101671.75;4998285;28;20030;-81
2022/05/05 00:32:09;;;;;;;16.92;7.00;;;;;;;11.64;70.78;101676.78;4999608;28;20026;-81
2022/05/05 00:34:34;;;;;;;13.65;4.68;;;;;;;11.66;70.26;101677.50;5100396;27;20034;-82
2022/05/05 00:37:00;;;;;;;10.68;5.03;;;;;;;11.68;69.93;101671.19;5040413;28;20065;-81
2022/05/05 00:39:25;;;;;;;13.07;5.25;;;;;;;11.69;70.27;101672.00;5018111;28;20034;-81
2022/05/05 00:41:51;;;;;;;12.00;4.97;;;;;;;11.69;69.96;101670.22;4985163;28;20041;-82
2022/05/05 00:44:17;;;;;;;12.05;5.30;;;;;;;11.68;70.70;101672.97;4998200;28;20386;-82
2022/05/05 00:46:50;;;;;;;14.18;6.28;;;;;;;11.65;71.21;101678.44;5013167;28;20955;-81
2022/05/05 00:49:16;;;;;;;11.18;4.82;;;;;;;11.59;71.68;101679.81;5003837;28;20099;-82
2022/05/05 00:51:41;;;;;;;16.85;5.68;;;;;;;11.59;71.84;101677.22;4997064;28;20026;-81
2022/05/05 00:54:07;;;;;;;13.23;5.60;;;;;;;11.60;71.30;101673.69;4993075;28;20045;-82
2022/05/05 00:56:33;;;;;;;10.73;5.57;;;;;;;11.63;70.93;101670.78;4993874;28;20079;-83
2022/05/05 00:59:00;;;;;;;15.27;5.28;;;;;;;11.67;70.39;101671.31;5078416;28;20045;-81
2022/05/05 01:01:26;;;;;;;13.38;6.13;;;;;;;11.70;70.29;101673.66;4993480;28;20041;-81
2022/05/05 01:03:52;;;;;;;13.25;5.72;;;;;;;11.74;70.04;101676.78;4997608;28;20394;-82
2022/05/05 01:06:17;;;;;;;8.85;5.47;;;;;;;11.76;69.94;101672.25;5096638;28;20512;-82
2022/05/05 01:08:43;;;;;;;10.88;4.90;;;;;;;11.77;70.11;101682.50;5093442;28;20038;-82
2022/05/05 01:11:09;;;;;;;13.63;5.18;;;;;;;11.77;70.14;101682.50;5003008;28;20061;-82
2022/05/05 01:13:39;;;;;;;14.05;5.00;;;;;;;11.78;70.24;101681.53;4997672;28;20111;-82
2022/05/05 01:16:06;;;;;;;8.52;5.28;;;;;;;11.80;70.23;101681.41;4986542;28;20091;-81
2022/05/05 01:18:32;;;;;;;11.88;4.72;;;;;;;11.78;69.99;101678.94;4994082;28;20041;-82
2022/05/05 01:20:58;;;;;;;10.18;4.78;;;;;;;11.74;71.05;101685.38;4987843;28;20395;-83
2022/05/05 01:23:24;;;;;;;11.55;5.10;;;;;;;11.66;72.06;101680.91;4999366;28;20078;-81
2022/05/05 01:28:39;;;;;;;10.55;4.93;;;;;;;11.62;72.61;101682.16;4997066;28;20034;-81
2022/05/05 01:31:07;;;;;;;12.18;5.00;;;;;;;11.64;72.13;101687.19;5012158;28;20083;-82
2022/05/05 01:33:33;;;;;;;11.73;5.43;;;;;;;11.65;71.63;101686.22;5089076;28;20098;-81
2022/05/05 01:35:58;;;;;;;20.95;5.18;;;;;;;11.61;72.04;101684.88;4984581;28;20034;-82
2022/05/05 01:38:26;;;;;;;8.95;4.68;;;;;;;11.56;72.46;101690.47;5093342;28;20033;-82
2022/05/05 01:40:52;;;;;;;11.68;5.47;;;;;;;11.54;72.11;101683.81;5009101;28;20224;-81
2022/05/05 01:43:19;;;;;;;10.32;5.25;;;;;;;11.53;71.87;101685.59;5004697;28;20062;-82
2022/05/05 01:45:45;;;;;;;10.55;4.95;;;;;;;11.54;71.72;101687.22;4987092;28;20097;-81
2022/05/05 01:48:11;;;;;;;15.52;6.43;;;;;;;11.55;71.92;101688.06;5002325;28;20033;-81
2022/05/05 01:50:37;;;;;;;9.40;5.45;;;;;;;11.57;71.69;101683.53;5009069;28;20030;-81
2022/05/05 01:53:04;;;;;;;9.43;5.05;;;;;;;11.55;71.61;101686.25;4996192;28;20038;-82
2022/05/05 01:55:30;;;;;;;9.48;4.72;;;;;;;11.50;72.47;101688.44;4999661;28;20034;-81
2022/05/05 01:58:00;;;;;;;11.15;5.63;;;;;;;11.47;73.12;101691.31;5008453;28;20039;-82
2022/05/05 02:00:27;;;;;;;15.18;6.05;;;;;;;11.45;73.15;101693.25;5022887;28;20034;-81
2022/05/05 02:02:52;;;;;;;9.38;4.93;;;;;;;11.45;73.27;101691.50;5010925;28;20026;-81
2022/05/05 02:05:19;;;;;;;14.98;5.72;;;;;;;11.44;73.31;101694.22;5010769;28;20084;-81
2022/05/05 02:07:45;;;;;;;13.88;5.38;;;;;;;11.42;73.12;101706.53;5088447;27;20034;-82
2022/05/05 02:10:16;;;;;;;12.27;5.18;;;;;;;11.34;73.36;101699.44;5094942;27;20108;-81
2022/05/05 02:12:43;;;;;;;11.20;5.47;;;;;;;11.30;73.53;101698.03;5078295;28;20386;-81
2022/05/05 02:15:10;;;;;;;15.13;5.40;;;;;;;11.31;73.42;101699.69;4995763;28;20111;-81
2022/05/05 02:17:37;;;;;;;12.65;5.45;;;;;;;11.32;73.14;101703.94;5009188;28;20029;-82
2022/05/05 02:20:04;;;;;;;10.50;5.32;;;;;;;11.35;72.98;101708.03;4980845;28;20045;-83
2022/05/05 02:22:30;;;;;;;12.40;5.20;;;;;;;11.36;72.24;101702.72;5070101;28;20478;-81
2022/05/05 02:24:55;;;;;;;10.13;5.45;;;;;;;11.38;72.00;101702.56;5077315;28;20037;-81
2022/05/05 02:27:21;;;;;;;10.35;5.53;;;;;;;11.38;71.99;101702.56;4987330;28;20101;-81
2022/05/05 02:29:48;;;;;;;13.93;5.22;;;;;;;11.34;72.29;101706.38;5010611;28;20037;-82
2022/05/05 02:32:14;;;;;;;14.40;5.50;;;;;;;11.33;72.03;101704.75;4995375;28;20034;-80
2022/05/05 02:34:40;;;;;;;9.05;5.05;;;;;;;11.34;71.77;101716.78;5077334;28;20473;-82
2022/05/05 02:39:50;;;;;;;13.93;5.63;;;;;;;11.32;71.19;101706.53;5093031;27;20030;-82
2022/05/05 02:42:17;;;;;;;11.93;5.13;;;;;;;11.32;70.76;101700.50;4999979;28;20509;-82
2022/05/05 02:44:43;;;;;;;10.77;5.95;;;;;;;11.30;70.76;101713.63;4992312;28;20119;-81
2022/05/05 02:47:09;;;;;;;11.52;5.18;;;;;;;11.28;70.88;101712.94;4986163;28;20055;-82
2022/05/05 02:49:35;;;;;;;11.70;5.88;;;;;;;11.23;71.18;101709.97;5003457;28;20033;-82
2022/05/05 02:52:04;;;;;;;9.05;4.88;;;;;;;11.19;71.07;101711.19;4996916;28;20117;-82
2022/05/05 02:54:50;;;;;;;11.20;5.55;;;;;;;11.15;70.97;101709.81;5010947;28;20029;-82
2022/05/05 02:57:18;;;;;;;12.30;5.43;;;;;;;11.13;71.20;101715.13;5018900;28;20056;-81
2022/05/05 02:59:44;;;;;;;14.25;5.55;;;;;;;11.09;71.30;101711.19;4987734;28;20038;-82
2022/05/05 03:02:10;;;;;;;15.82;5.88;;;;;;;11.01;72.01;101706.69;5072901;28;20133;-81
2022/05/05 03:04:35;;;;;;;13.13;6.10;;;;;;;10.95;72.46;101706.41;4987407;28;20474;-81
2022/05/05 03:07:01;;;;;;;13.75;5.93;;;;;;;10.85;73.11;101709.81;5076971;28;20034;-82
2022/05/05 03:09:26;;;;;;;10.15;5.18;;;;;;;10.83;73.60;101710.91;4993488;28;20034;-82
2022/05/05 03:11:52;;;;;;;16.42;5.70;;;;;;;10.83;73.24;101708.31;4990449;28;20033;-81
2022/05/05 03:14:17;;;;;;;11.55;5.88;;;;;;;10.80;73.28;101712.00;4992788;28;20026;-81
2022/05/05 03:16:43;;;;;;;11.38;6.03;;;;;;;10.73;73.75;101720.47;4980362;28;20034;-81
2022/05/05 03:19:09;;;;;;;13.77;5.90;;;;;;;10.70;73.65;101712.00;4996560;28;20718;-81
2022/05/05 03:21:35;;;;;;;13.27;6.13;;;;;;;10.66;73.77;101720.16;5008084;28;20032;-81
2022/05/05 03:24:01;;;;;;;16.75;5.88;;;;;;;10.61;74.11;101715.38;5008499;28;20026;-82
2022/05/05 03:26:26;;;;;;;15.60;7.10;;;;;;;10.59;73.79;101714.72;5090729;28;20063;-82
2022/05/05 03:28:52;;;;;;;14.45;6.18;;;;;;;10.60;73.76;101723.31;5001090;28;20041;-81
2022/05/05 03:31:17;;;;;;;10.82;5.80;;;;;;;10.59;73.30;101724.28;5004852;28;20034;-81
2022/05/05 03:33:43;;;;;;;13.30;6.05;;;;;;;10.57;73.31;101724.41;5001683;28;20030;-82
2022/05/05 03:36:09;;;;;;;14.23;6.68;;;;;;;10.56;73.15;101729.72;5019776;28;20045;-83
2022/05/05 03:38:35;;;;;;;13.18;6.18;;;;;;;10.56;73.16;101724.53;5012984;28;20109;-81
2022/05/05 03:41:02;;;;;;;15.30;6.78;;;;;;;10.53;72.77;101730.81;5081822;28;20447;-83
2022/05/05 03:43:28;;;;;;;15.43;6.18;;;;;;;10.51;72.74;101724.94;4987127;28;20033;-83
2022/05/05 03:45:53;;;;;;;12.02;5.70;;;;;;;10.49;72.79;101726.81;4999791;28;20398;-83
2022/05/05 03:48:19;;;;;;;12.73;6.20;;;;;;;10.47;72.91;101728.72;5011826;28;20030;-81
2022/05/05 03:50:44;;;;;;;12.00;6.03;;;;;;;10.45;73.34;101730.63;4994566;28;20032;-81
2022/05/05 03:53:10;;;;;;;14.10;6.38;;;;;;;10.41;73.59;101735.25;4998718;28;20383;-82
2022/05/05 03:55:35;;;;;;;14.43;6.55;;;;;;;10.39;73.42;101728.56;4997700;28;20030;-82
2022/05/05 03:58:01;;;;;;;10.23;5.82;;;;;;;10.35;73.62;101730.59;5095301;28;20049;-81
2022/05/05 04:00:27;;;;;;;14.35;6.50;;;;;;;10.33;73.30;101737.69;4982135;28;20038;-82
2022/05/05 04:05:36;;;;;;;12.00;6.20;;;;;;;10.26;74.13;101733.94;5024583;28;20085;-81
2022/05/05 04:08:03;;;;;;;15.60;6.95;;;;;;;10.23;73.77;101732.44;5024216;28;20540;-82
2022/05/05 04:10:29;;;;;;;15.80;7.28;;;;;;;10.19;74.06;101740.59;5017004;28;20033;-81
2022/05/05 04:12:55;;;;;;;17.17;6.40;;;;;;;10.13;74.32;101741.94;5081339;28;20041;-83
2022/05/05 04:15:21;;;;;;;14.88;6.47;;;;;;;10.10;74.25;101739.63;5006428;28;20057;-82
2022/05/05 04:17:46;;;;;;;11.27;6.38;;;;;;;10.06;74.28;101743.44;5002145;28;20443;-81
2022/05/05 04:20:12;;;;;;;14.93;7.15;;;;;;;10.03;74.10;101751.47;5001677;28;20030;-81
2022/05/05 04:22:38;;;;;;;14.68;6.38;;;;;;;10.00;74.18;101747.38;5022612;28;20034;-82
2022/05/05 04:25:04;;;;;;;15.00;6.63;;;;;;;9.95;74.40;101754.69;5082231;28;20155;-83
2022/05/05 04:27:31;;;;;;;18.85;7.07;;;;;;;9.92;74.81;101758.34;5016987;28;21197;-82
2022/05/05 04:29:56;;;;;;;12.05;7.03;;;;;;;9.86;74.98;101761.47;5002041;28;20038;-83
2022/05/05 04:32:22;;;;;;;17.33;7.00;;;;;;;9.83;75.77;101758.28;5007882;28;20037;-83
2022/05/05 04:34:47;;;;;;;15.05;7.05;;;;;;;9.83;76.00;101764.31;5007701;28;20037;-82
2022/05/05 04:37:13;;;;;;;17.52;7.47;;;;;;;9.84;75.85;101757.38;5079786;28;20037;-83
2022/05/05 04:39:39;;;;;;;16.83;7.72;;;;;;;9.85;75.90;101754.66;5099709;27;20092;-81
2022/05/05 04:42:05;;;;;;;13.10;6.68;;;;;;;9.84;75.78;101760.78;5007219;28;20065;-81
2022/05/05 04:44:31;;;;;;;15.15;7.32;;;;;;;9.82;76.22;101765.25;5009970;28;20030;-81
2022/05/05 04:46:56;;;;;;;16.55;7.45;;;;;;;9.84;76.35;101765.13;5099961;27;20067;-83
2022/05/05 04:49:22;;;;;;;16.83;7.07;;;;;;;9.85;76.63;101774.53;5003888;28;20095;-83
2022/05/05 04:51:47;;;;;;;13.15;6.35;;;;;;;9.81;76.89;101771.38;5007918;28;20040;-83
2022/05/05 04:54:13;;;;;;;14.00;6.65;;;;;;;9.78;77.60;101778.59;5098716;28;20113;-82
2022/05/05 04:56:38;;;;;;;14.40;6.90;;;;;;;9.71;78.31;101775.69;4995975;28;20049;-81
2022/05/05 04:59:04;;;;;;;13.05;7.53;;;;;;;9.70;79.02;101774.88;5100337;28;20030;-82
2022/05/05 05:01:29;;;;;;;14.05;7.65;;;;;;;9.70;79.07;101781.78;5003038;28;20038;-84
2022/05/05 05:03:55;;;;;;;12.73;7.10;;;;;;;9.70;79.13;101774.03;5098106;27;20033;-82
2022/05/05 05:06:20;;;;;;;19.73;7.80;;;;;;;9.74;78.82;101789.22;5004004;28;20030;-82
2022/05/05 05:08:46;;;;;;;18.67;7.28;;;;;;;9.80;78.32;101785.28;4997086;28;20017;-82
2022/05/05 05:11:12;;;;;;;18.17;7.85;;;;;;;9.78;78.84;101794.16;5103481;27;20025;-81
2022/05/05 05:13:37;;;;;;;14.88;7.38;;;;;;;9.81;79.10;101786.91;5102395;27;20095;-82
2022/05/05 05:16:03;;;;;;;22.58;9.07;;;;;;;9.89;79.01;101794.09;5023793;28;20032;-83
2022/05/05 05:18:28;;;;;;;17.25;7.50;;;;;;;9.97;79.42;101796.84;5022066;28;20254;-82
2022/05/05 05:20:54;;;;;;;14.95;7.63;;;;;;;10.01;79.64;101802.59;5005179;28;20050;-84
2022/05/05 05:23:19;;;;;;;15.13;6.90;;;;;;;10.07;79.92;101799.47;5006369;28;20037;-81
2022/05/05 05:25:45;;;;;;;20.17;7.75;;;;;;;10.12;80.17;101805.13;5021382;28;20038;-82
2022/05/05 05:28:12;;;;;;;22.30;8.23;;;;;;;10.21;80.40;101808.69;5013197;28;20105;-83
2022/05/05 05:30:38;;;;;;;19.23;7.95;;;;;;;10.28;80.29;101808.06;4987316;28;20049;-81
2022/05/05 05:33:04;;;;;;;21.95;7.95;;;;;;;10.35;80.48;101810.16;5010572;28;20047;-82
2022/05/05 05:35:30;;;;;;;17.98;7.93;;;;;;;10.44;80.19;101812.78;5007918;28;20447;-83
2022/05/05 05:37:55;;;;;;;14.18;7.88;;;;;;;10.55;79.45;101816.22;5005243;28;20034;-82
2022/05/05 05:40:21;;;;;;;20.73;7.88;;;;;;;10.64;78.76;101812.84;5006268;28;20052;-83
2022/05/05 05:42:46;;;;;;;20.98;8.57;;;;;;;10.75;78.07;101817.13;5005337;28;20041;-81
2022/05/05 05:45:12;;;;;;;23.15;9.20;;;;;;;10.86;77.53;101822.22;5002509;28;20037;-82
2022/05/05 05:47:37;;;;;;;22.17;9.15;;;;;;;11.02;75.79;101817.34;5018383;28;20037;-83
2022/05/05 05:50:03;;;;;;;20.00;8.60;;;;;;;11.20;75.28;101821.84;5097099;27;20030;-82
2022/05/05 05:52:29;;;;;;;18.55;8.43;;;;;;;11.43;73.82;101817.22;5001909;28;20110;-81
2022/05/05 05:54:54;;;;;;;26.30;9.40;;;;;;;11.63;72.01;101818.84;5005503;28;20025;-81
2022/05/05 05:57:19;;;;;;;22.80;8.75;;;;;;;11.72;70.34;101814.63;5007061;28;20030;-82
2022/05/05 05:59:45;;;;;;;22.45;9.23;;;;;;;11.78;69.49;101824.44;5006094;28;20038;-83
2022/05/05 06:04:54;;;;;;;18.60;9.07;;;;;;;11.88;69.37;101833.06;5003649;28;20033;-82
2022/05/05 06:07:20;;;;;;;24.40;9.45;;;;;;;11.97;69.18;101830.63;4995765;28;20029;-82
2022/05/05 06:09:46;;;;;;;27.75;9.20;;;;;;;11.99;68.62;101833.88;5018621;28;20030;-82
2022/05/05 06:12:11;;;;;;;24.40;8.98;;;;;;;12.03;68.24;101832.66;5029272;28;20060;-82
2022/05/05 06:14:37;;;;;;;25.90;9.88;;;;;;;12.12;68.87;101842.19;5005407;28;20043;-82
2022/05/05 06:17:02;;;;;;;27.63;10.05;;;;;;;12.34;68.53;101837.63;5026349;28;20033;-81
2022/05/05 06:19:28;;;;;;;18.92;9.23;;;;;;;12.61;66.80;101837.66;5003768;28;20034;-82
2022/05/05 06:21:53;;;;;;;19.58;9.50;;;;;;;13.03;64.54;101837.16;5025524;28;20512;-83
2022/05/05 06:24:19;;;;;;;24.92;9.82;;;;;;;13.31;63.88;101833.72;5103251;27;21036;-83
2022/05/05 06:26:44;;;;;;;25.52;10.00;;;;;;;13.42;63.86;101841.28;5013433;28;20021;-82
2022/05/05 06:29:10;;;;;;;22.15;8.75;;;;;;;13.36;63.93;101841.91;5019355;28;20410;-83
2022/05/05 06:31:35;;;;;;;28.05;9.05;;;;;;;13.39;65.30;101852.00;4988496;28;20038;-82
2022/05/05 06:34:01;;;;;;;17.33;8.52;;;;;;;13.38;64.88;101845.97;5005721;28;20650;-84
2022/05/05 06:36:26;;;;;;;22.13;9.07;;;;;;;13.48;64.76;101848.50;5013414;28;20028;-83
2022/05/05 06:38:52;;;;;;;20.00;8.93;;;;;;;13.49;64.35;101852.75;5004467;28;20041;-83
2022/05/05 06:41:18;;;;;;;19.70;9.15;;;;;;;13.49;64.32;101855.38;5007543;28;20029;-84
2022/05/05 06:43:44;;;;;;;17.95;8.48;;;;;;;13.47;63.84;101853.88;5004126;28;20029;-83
2022/05/05 06:46:09;;;;;;;21.83;8.63;;;;;;;13.49;64.50;101855.38;4997410;28;20030;-81
2022/05/05 06:48:36;;;;;;;18.60;8.10;;;;;;;13.54;64.37;101860.97;5017637;28;20083;-82
2022/05/05 06:51:03;;;;;;;25.67;9.55;;;;;;;13.66;62.99;101852.91;4999425;28;20032;-82
2022/05/05 06:53:28;;;;;;;19.20;8.30;;;;;;;13.85;62.67;101850.13;4993751;28;20034;-82
2022/05/05 06:55:57;;;;;;;20.98;9.98;;;;;;;13.98;60.51;101855.75;4997648;28;20103;-82
2022/05/05 06:58:22;;;;;;;22.25;8.57;;;;;;;14.06;60.79;101856.78;5001201;28;20113;-84
2022/05/05 07:03:37;;;;;;;20.08;8.57;;;;;;;14.56;59.36;101863.88;5102008;27;20089;-84
2022/05/05 07:06:03;;;;;;;23.25;8.88;;;;;;;14.77;57.00;101858.31;5004515;28;20041;-81
2022/05/05 07:10:52;;;;;;;18.55;8.88;;;;;;;14.80;57.46;101865.81;5019207;28;20037;-81
2022/05/05 07:11:14;;;;;;;19.15;8.75;;;;;;;14.81;58.71;101864.84;5001311;28;20092;-82
2022/05/05 07:13:40;;;;;;;24.05;9.13;;;;;;;14.84;56.96;101868.94;5006156;28;20042;-82
2022/05/05 07:16:06;;;;;;;17.63;7.97;;;;;;;14.63;58.24;101861.50;4982689;28;20165;-82
2022/05/05 07:18:31;;;;;;;31.20;9.82;;;;;;;14.52;59.74;101866.00;5005590;28;20566;-82
2022/05/05 07:20:59;;;;;;;17.95;8.10;;;;;;;14.53;59.96;101870.25;4982709;28;20057;-82
2022/05/05 07:23:24;;;;;;;19.38;9.00;;;;;;;14.61;60.30;101866.88;5096996;28;20033;-82
2022/05/05 07:25:50;;;;;;;21.15;8.38;;;;;;;14.66;60.56;101869.03;4994820;28;20506;-81
2022/05/05 07:28:16;;;;;;;24.15;8.02;;;;;;;14.74;60.62;101875.09;5091653;28;20736;-82
2022/05/05 07:30:41;;;;;;;20.50;8.88;;;;;;;14.79;59.82;101869.41;4990667;28;20025;-82
2022/05/05 07:33:07;;;;;;;16.88;8.18;;;;;;;14.92;59.15;101871.59;5013330;28;20406;-82
2022/05/05 07:35:33;;;;;;;13.20;6.82;;;;;;;15.11;58.17;101873.09;4984008;28;20030;-82
2022/05/05 07:37:58;;;;;;;16.55;7.00;;;;;;;15.20;57.65;101872.16;5073041;28;20030;-82
2022/05/05 07:40:24;;;;;;;24.38;9.27;;;;;;;15.27;56.40;101882.75;4975041;28;20042;-82
2022/05/05 07:42:50;;;;;;;17.50;7.18;;;;;;;15.27;55.95;101886.19;4994262;28;20026;-82
2022/05/05 07:45:15;;;;;;;9.35;5.90;;;;;;;15.28;55.96;101882.59;5048109;28;20539;-82
2022/05/05 07:47:41;;;;;;;14.77;6.63;;;;;;;15.24;55.25;101883.91;5089896;28;20033;-82
2022/05/05 07:50:07;;;;;;;15.02;6.18;;;;;;;15.27;55.29;101880.94;4999277;28;20031;-84
2022/05/05 07:52:32;;;;;;;12.73;5.90;;;;;;;15.35;55.01;101888.81;5004056;28;20032;-82
2022/05/05 07:54:58;;;;;;;15.60;6.25;;;;;;;15.37;54.44;101892.09;5045827;28;20024;-82
2022/05/05 07:57:23;;;;;;;19.40;6.18;;;;;;;15.41;54.27;101894.38;5000031;28;20398;-83
2022/05/05 07:59:49;;;;;;;15.38;5.10;;;;;;;15.53;53.69;101893.09;5085307;28;20038;-82
2022/05/05 08:02:15;;;;;;;16.25;6.18;;;;;;;15.63;53.23;101900.75;4996187;28;20049;-82
2022/05/05 08:04:44;;;;;;;15.23;6.40;;;;;;;15.72;53.09;101902.41;4993518;28;20097;-83
2022/05/05 08:07:10;;;;;;;9.85;4.60;;;;;;;15.85;53.00;101905.38;4997542;28;20442;-83
2022/05/05 08:09:36;;;;;;;15.50;5.50;;;;;;;16.07;52.69;101908.31;4998648;28;20022;-81
2022/05/05 08:12:03;;;;;;;19.80;7.25;;;;;;;16.17;51.78;101902.91;5015183;28;20048;-82
2022/05/05 08:14:29;;;;;;;14.27;6.57;;;;;;;16.38;51.78;101905.00;5017881;28;20515;-82
2022/05/05 08:16:55;;;;;;;15.45;6.82;;;;;;;16.76;50.41;101911.22;4999858;28;20026;-83
2022/05/05 08:19:22;;;;;;;14.57;6.60;;;;;;;16.93;49.79;101901.53;5004319;28;20049;-82
2022/05/05 08:21:48;;;;;;;17.92;6.45;;;;;;;17.32;48.99;101896.22;4998395;28;20038;-81
2022/05/05 08:29:42;;;;;;;20.00;7.25;;;;;;;17.59;44.94;101901.94;5022398;28;20042;-83
2022/05/05 08:32:08;;;;;;;14.27;5.60;;;;;;;17.52;44.38;101914.16;5004349;28;20064;-81
2022/05/05 08:34:33;;;;;;;23.55;7.05;;;;;;;17.68;45.73;101913.19;5106222;27;20030;-81
2022/05/05 08:36:59;;;;;;;20.08;7.35;;;;;;;17.74;45.55;101906.44;5001607;28;20036;-82
2022/05/05 08:39:25;;;;;;;15.82;7.10;;;;;;;17.67;45.68;101916.81;5010824;28;20065;-82
2022/05/05 08:41:53;;;;;;;15.82;6.20;;;;;;;17.53;45.51;101918.38;5000863;28;20041;-82
2022/05/05 08:44:19;;;;;;;12.43;6.18;;;;;;;17.58;45.99;101918.69;5022843;28;20060;-81
2022/05/05 08:46:47;;;;;;;17.13;6.90;;;;;;;17.82;45.42;101914.22;5011306;28;20451;-82
2022/05/05 08:49:12;;;;;;;17.85;7.65;;;;;;;17.95;45.08;101916.28;5001089;28;20034;-80
2022/05/05 08:51:43;;;;;;;16.10;6.22;;;;;;;18.39;43.94;101918.97;5014798;28;20022;-81
2022/05/05 08:54:12;;;;;;;15.25;5.95;;;;;;;18.90;43.28;101918.25;5086634;28;20530;-81
2022/05/05 08:56:39;;;;;;;14.77;5.97;;;;;;;19.20;43.13;101920.81;5004568;28;20052;-81
2022/05/05 08:59:07;;;;;;;15.75;7.30;;;;;;;19.04;43.22;101922.66;5000995;28;20022;-82
2022/05/05 09:01:39;;;;;;;16.60;7.55;;;;;;;18.44;43.53;101919.25;5015624;28;20041;-81
2022/05/05 09:04:09;;;;;;;19.77;6.18;;;;;;;18.14;43.82;101928.06;5102915;28;20501;-82
2022/05/05 09:06:51;;;;;;;11.98;5.68;;;;;;;18.28;43.36;101917.59;5101659;27;20082;-81
2022/05/05 09:09:24;;;;;;;22.27;7.65;;;;;;;18.43;41.45;101917.59;5019487;28;20046;-81
2022/05/05 09:12:12;;;;;;;20.48;7.00;;;;;;;18.76;41.47;101922.50;4999771;28;20072;-82
2022/05/05 09:14:43;;;;;;;17.70;6.78;;;;;;;19.01;41.45;101920.38;5097849;27;20113;-83
2022/05/05 09:17:10;;;;;;;21.33;8.10;;;;;;;19.01;39.53;101925.66;5100383;27;20038;-81
2022/05/05 09:19:39;;;;;;;19.67;7.18;;;;;;;19.23;39.34;101918.63;5105117;27;20027;-82
2022/05/05 09:22:06;;;;;;;11.30;5.90;;;;;;;19.90;40.26;101919.25;5012398;28;20033;-82
2022/05/05 09:24:35;;;;;;;17.15;6.43;;;;;;;19.95;41.67;101922.13;5028856;28;20059;-81
2022/05/05 09:27:20;;;;;;;20.90;7.28;;;;;;;19.02;39.80;101924.66;5012521;28;20025;-81
2022/05/05 09:30:07;;;;;;;17.70;6.53;;;;;;;18.39;40.46;101921.59;5012800;28;20390;-81
2022/05/05 09:32:36;;;;;;;17.67;6.55;;;;;;;18.30;40.57;101920.03;4992496;28;20021;-83
2022/05/05 09:35:13;;;;;;;17.95;7.70;;;;;;;18.35;38.54;101919.53;4983262;28;20038;-82
2022/05/05 09:37:49;;;;;;;20.83;8.05;;;;;;;18.35;40.35;101919.53;5019836;28;20034;-81
2022/05/05 09:40:20;;;;;;;18.48;7.97;;;;;;;18.81;41.15;101929.84;5016206;28;20029;-82
2022/05/05 09:42:50;;;;;;;24.70;8.40;;;;;;;19.05;40.80;101921.66;5000370;28;20393;-81
2022/05/05 09:45:17;;;;;;;20.77;9.45;;;;;;;19.34;37.62;101919.13;5002610;28;20038;-82
2022/05/05 09:47:43;;;;;;;19.63;8.82;;;;;;;19.59;37.64;101919.53;5018252;28;20085;-81
2022/05/05 09:50:09;;;;;;;14.75;8.13;;;;;;;20.02;38.80;101928.25;5004643;28;20072;-83
2022/05/05 09:58:08;;;;;;;23.30;8.77;;;;;;;19.78;38.30;101926.03;4991414;28;20033;-81
2022/05/05 10:05:56;;;;;;;20.27;8.90;;;;;;;19.68;38.45;101936.03;5100013;27;20389;-82
2022/05/05 10:08:50;;;;;;;16.00;8.27;;;;;;;19.62;39.60;101932.34;5022548;28;20038;-81
2022/05/05 10:11:16;;;;;;;31.75;9.45;;;;;;;19.83;39.35;101934.16;4981382;28;20410;-82
2022/05/05 10:13:45;;;;;;;19.27;8.27;;;;;;;19.79;40.93;101932.91;5091448;27;20112;-82
2022/05/05 10:16:14;;;;;;;22.20;8.80;;;;;;;20.00;41.10;101935.53;5000727;28;20033;-81
2022/05/05 10:18:41;;;;;;;19.98;8.05;;;;;;;20.00;40.70;101932.91;4988139;28;20062;-81
2022/05/05 10:21:13;;;;;;;16.60;8.45;;;;;;;20.06;39.57;101930.47;4998389;28;20501;-82
2022/05/05 10:23:58;;;;;;;21.42;9.15;;;;;;;20.14;39.14;101939.06;5092588;27;20382;-82
2022/05/05 10:26:25;;;;;;;18.35;9.98;;;;;;;20.21;37.91;101939.94;5096761;27;20063;-82
2022/05/05 10:28:52;;;;;;;19.42;9.18;;;;;;;20.09;38.74;101943.28;5038786;27;20038;-82
2022/05/05 10:31:30;;;;;;;20.10;8.77;;;;;;;20.25;38.28;101936.88;5026858;28;20164;-80
2022/05/05 10:34:14;;;;;;;22.35;8.43;;;;;;;20.42;39.36;101938.22;5014884;28;20044;-81
2022/05/05 10:36:55;;;;;;;23.08;9.32;;;;;;;20.11;37.96;101941.25;5020271;28;20493;-81
2022/05/05 10:39:23;;;;;;;25.23;9.10;;;;;;;20.03;38.27;101929.06;5002470;28;20570;-81
2022/05/05 10:41:51;;;;;;;18.38;8.93;;;;;;;20.38;38.66;101926.44;5000669;28;20093;-83
2022/05/05 10:44:16;;;;;;;20.50;9.50;;;;;;;20.28;37.90;101932.06;5017514;28;20034;-82
2022/05/05 10:46:51;;;;;;;20.23;8.98;;;;;;;20.46;40.24;101925.50;4995305;28;20121;-82
2022/05/05 10:49:32;;;;;;;20.33;8.43;;;;;;;20.58;38.75;101932.63;5095818;27;20121;-82
2022/05/05 10:52:09;;;;;;;18.05;8.88;;;;;;;20.90;38.08;101934.84;5011628;28;20083;-82
2022/05/05 10:54:36;;;;;;;21.25;8.02;;;;;;;20.95;39.38;101935.06;4997407;28;20057;-82
2022/05/05 10:57:26;;;;;;;21.08;8.30;;;;;;;21.28;40.80;101924.59;4999066;28;20022;-81
2022/05/05 11:00:22;;;;;;;18.63;8.65;;;;;;;21.48;36.87;101924.66;5014946;28;20034;-82
2022/05/05 11:02:57;;;;;;;21.83;9.63;;;;;;;21.64;38.28;101920.00;4996986;28;20030;-82
2022/05/05 11:05:28;;;;;;;19.92;8.60;;;;;;;21.67;37.26;101915.13;4988714;28;20038;-81
2022/05/05 11:08:09;;;;;;;19.98;9.32;;;;;;;21.51;38.42;101924.25;5007345;28;20041;-83
2022/05/05 11:10:40;;;;;;;18.98;7.60;;;;;;;21.85;37.60;101919.81;5078441;28;20034;-82
2022/05/05 11:13:07;;;;;;;17.08;7.70;;;;;;;21.63;37.71;101926.31;4995802;28;20033;-81
2022/05/05 11:21:35;;;;;;;19.92;8.30;;;;;;;20.88;40.05;101921.03;5001345;28;20042;-83
2022/05/05 11:24:03;;;;;;;17.95;8.80;;;;;;;20.95;39.83;101924.53;5007564;28;20089;-83
2022/05/05 11:26:35;;;;;;;19.13;8.07;;;;;;;20.76;40.32;101924.25;5083652;28;20696;-84
2022/05/05 11:29:00;;;;;;;14.90;8.02;;;;;;;20.54;39.61;101922.69;5004112;28;20085;-82
2022/05/05 11:31:30;;;;;;;18.90;7.72;;;;;;;20.64;40.57;101927.63;5107811;28;20049;-84
2022/05/05 11:33:58;;;;;;;20.02;9.20;;;;;;;20.53;38.96;101921.88;5005174;28;20041;-84
2022/05/05 11:36:29;;;;;;;14.60;7.97;;;;;;;20.80;39.25;101922.03;5016780;28;20040;-84
2022/05/05 11:38:56;;;;;;;19.52;9.30;;;;;;;21.02;39.26;101927.16;5007723;28;20038;-84
2022/05/05 11:41:22;;;;;;;19.80;9.20;;;;;;;21.03;38.73;101928.81;5106052;28;20517;-83
2022/05/05 11:46:53;;;;;;;17.67;8.27;;;;;;;20.29;39.87;101930.25;5026941;28;20101;-83
2022/05/05 11:49:19;;;;;;;19.13;8.45;;;;;;;20.07;39.41;101929.50;5032574;28;20073;-84
2022/05/05 11:51:45;;;;;;;19.10;7.80;;;;;;;20.03;40.47;101929.06;5006594;28;20049;-84
2022/05/05 11:54:23;;;;;;;16.23;7.90;;;;;;;20.03;41.17;101927.22;5006051;28;20030;-84
2022/05/05 11:56:50;;;;;;;17.23;8.32;;;;;;;20.13;40.86;101923.44;5093412;28;20045;-84
2022/05/05 12:02:09;;;;;;;13.95;8.32;;;;;;;21.12;39.92;101912.59;5029002;28;20083;-84
2022/05/05 12:04:38;;;;;;;17.00;8.25;;;;;;;21.44;40.66;101915.53;5006771;28;20021;-84